createdAt,value
2019-03-18T00:00:37.792Z,100304.07
2019-03-18T00:03:09.149Z,100301.55
2019-03-18T00:05:40.568Z,100308.06
2019-03-18T00:08:12.859Z,100301.46
2019-03-18T00:10:44.146Z,100310.88
2019-03-18T00:13:15.376Z,100313.09
2019-03-18T00:15:46.696Z,100313.49
2019-03-18T00:18:18.017Z,100316.45
2019-03-18T00:20:49.369Z,100324.70
2019-03-18T00:23:20.984Z,100331.91
2019-03-18T00:25:52.540Z,100334.81
2019-03-18T00:28:23.869Z,100329.11
2019-03-18T00:30:55.241Z,100335.31
2019-03-18T00:33:26.547Z,100326.88
2019-03-18T00:35:57.858Z,100319.19
2019-03-18T00:38:29.257Z,100321.30
2019-03-18T00:41:00.478Z,100323.39
2019-03-18T00:43:31.720Z,100321.51
2019-03-18T00:46:02.967Z,100317.59
2019-03-18T00:48:34.285Z,100330.62
2019-03-18T00:51:05.586Z,100336.62
2019-03-18T00:53:36.857Z,100335.22
2019-03-18T00:56:08.129Z,100330.41
2019-03-18T00:58:39.358Z,100343.03
2019-03-18T01:01:11.745Z,100343.43
2019-03-18T01:03:43.023Z,100345.94
2019-03-18T01:06:14.319Z,100342.55
2019-03-18T01:08:46.589Z,100343.95
2019-03-18T01:11:17.909Z,100340.95
2019-03-18T01:13:49.198Z,100346.16
2019-03-18T01:16:20.461Z,100346.16
2019-03-18T01:18:51.782Z,100356.06
2019-03-18T01:21:24.087Z,100352.16
2019-03-18T01:23:55.361Z,100352.45
2019-03-18T01:26:26.841Z,100341.12
2019-03-18T01:28:58.267Z,100353.66
2019-03-18T01:31:29.568Z,100349.36
2019-03-18T01:34:00.959Z,100345.75
2019-03-18T01:36:32.239Z,100346.05
2019-03-18T01:39:04.089Z,100355.94
2019-03-18T01:41:35.434Z,100366.78
2019-03-18T01:44:06.800Z,100349.34
2019-03-18T01:46:38.088Z,100353.97
2019-03-18T01:49:09.531Z,100359.95
2019-03-18T01:51:40.843Z,100359.86
2019-03-18T01:54:12.210Z,100357.26
2019-03-18T01:56:43.455Z,100358.95
2019-03-18T01:59:14.777Z,100370.67
2019-03-18T02:01:46.038Z,100364.88
2019-03-18T02:04:17.227Z,100357.16
2019-03-18T02:06:48.625Z,100364.45
2019-03-18T02:09:19.892Z,100369.17
2019-03-18T02:11:51.324Z,100363.48
2019-03-18T02:14:22.592Z,100362.47
2019-03-18T02:16:53.839Z,100357.56
2019-03-18T02:19:25.030Z,100363.06
2019-03-18T02:21:56.282Z,100357.23
2019-03-18T02:24:27.707Z,100362.73
2019-03-18T02:26:58.928Z,100382.27
2019-03-18T02:29:30.221Z,100364.44
2019-03-18T02:32:01.613Z,100367.23
2019-03-18T02:34:32.835Z,100372.12
2019-03-18T02:37:04.119Z,100369.52
2019-03-18T02:39:35.373Z,100372.02
2019-03-18T02:42:06.599Z,100368.50
2019-03-18T02:44:37.914Z,100369.41
2019-03-18T02:47:09.180Z,100365.90
2019-03-18T02:49:40.441Z,100365.02
2019-03-18T02:52:11.685Z,100368.92
2019-03-18T02:54:43.786Z,100375.02
2019-03-18T02:57:15.058Z,100366.33
2019-03-18T02:59:46.422Z,100368.02
2019-03-18T03:02:17.689Z,100370.81
2019-03-18T03:04:48.974Z,100373.42
2019-03-18T03:07:20.325Z,100384.35
2019-03-18T03:09:51.526Z,100383.14
2019-03-18T03:12:22.797Z,100380.55
2019-03-18T03:14:54.000Z,100380.64
2019-03-18T03:17:25.286Z,100383.73
2019-03-18T03:19:56.502Z,100382.43
2019-03-18T03:22:27.724Z,100381.65
2019-03-18T03:24:59.072Z,100382.56
2019-03-18T03:27:30.275Z,100383.05
2019-03-18T03:30:01.643Z,100373.94
2019-03-18T03:32:33.010Z,100378.23
2019-03-18T03:35:04.573Z,100374.62
2019-03-18T03:37:35.775Z,100384.25
2019-03-18T03:40:07.970Z,100377.13
2019-03-18T03:42:39.259Z,100371.82
2019-03-18T03:45:10.422Z,100383.92
2019-03-18T03:47:41.831Z,100376.41
2019-03-18T03:50:13.177Z,100387.63
2019-03-18T03:52:44.512Z,100374.62
2019-03-18T03:55:15.745Z,100396.26
2019-03-18T03:57:46.964Z,100392.74
2019-03-18T04:00:18.222Z,100384.02
2019-03-18T04:02:49.543Z,100397.42
2019-03-18T04:05:20.822Z,100381.32
2019-03-18T04:07:52.030Z,100393.66
2019-03-18T04:10:23.431Z,100403.64
2019-03-18T04:12:54.688Z,100407.55
2019-03-18T04:15:26.014Z,100407.84
2019-03-18T04:17:57.256Z,100411.25
2019-03-18T04:20:28.549Z,100413.46
2019-03-18T04:22:59.828Z,100416.45
2019-03-18T04:25:31.896Z,100427.25
2019-03-18T04:28:03.154Z,100419.45
2019-03-18T04:30:34.410Z,100422.96
2019-03-18T04:33:06.039Z,100428.55
2019-03-18T04:35:37.456Z,100437.28
2019-03-18T04:38:08.687Z,100431.68
2019-03-18T04:40:39.949Z,100429.66
2019-03-18T04:43:11.206Z,100436.17
2019-03-18T04:45:42.396Z,100442.30
2019-03-18T04:48:13.652Z,100443.69
2019-03-18T04:50:44.891Z,100441.61
2019-03-18T04:53:16.168Z,100444.31
2019-03-18T04:55:47.518Z,100448.70
2019-03-18T04:58:19.024Z,100450.73
2019-03-18T05:00:50.293Z,100453.44
2019-03-18T05:03:21.529Z,100460.47
2019-03-18T05:05:55.999Z,100455.84
2019-03-18T05:08:27.267Z,100464.66
2019-03-18T05:10:58.568Z,100465.29
2019-03-18T05:13:29.844Z,100472.00
2019-03-18T05:16:01.170Z,100459.98
2019-03-18T05:18:32.434Z,100470.11
2019-03-18T05:21:03.683Z,100468.91
2019-03-18T05:23:34.991Z,100469.82
2019-03-18T05:26:06.363Z,100479.84
2019-03-18T05:28:37.606Z,100495.15
2019-03-18T05:31:09.007Z,100506.17
2019-03-18T05:33:41.577Z,100486.23
2019-03-18T05:36:12.877Z,100490.66
2019-03-18T05:38:44.228Z,100485.45
2019-03-18T05:41:15.650Z,100492.44
2019-03-18T05:43:46.936Z,100488.64
2019-03-18T05:46:18.180Z,100496.06
2019-03-18T05:48:49.691Z,100498.37
2019-03-18T05:51:20.966Z,100493.16
2019-03-18T05:53:52.725Z,100493.84
2019-03-18T05:56:24.057Z,100494.66
2019-03-18T05:58:55.402Z,100499.48
2019-03-18T06:01:26.799Z,100496.98
2019-03-18T06:03:58.025Z,100501.41
2019-03-18T06:06:29.298Z,100504.02
2019-03-18T06:09:00.584Z,100519.45
2019-03-18T06:11:32.068Z,100513.84
2019-03-18T06:14:03.326Z,100525.14
2019-03-18T06:16:34.694Z,100526.88
2019-03-18T06:19:06.973Z,100545.20
2019-03-18T06:21:38.195Z,100556.92
2019-03-18T06:24:09.464Z,100546.08
2019-03-18T06:26:40.759Z,100556.73
2019-03-18T06:29:14.156Z,100572.75
2019-03-18T06:31:46.515Z,100568.17
2019-03-18T06:34:17.805Z,100568.76
2019-03-18T06:36:49.066Z,100570.97
2019-03-18T06:39:20.592Z,100580.19
2019-03-18T06:41:51.882Z,100580.81
2019-03-18T06:44:23.133Z,100582.61
2019-03-18T06:46:54.464Z,100588.73
2019-03-18T06:49:25.802Z,100586.75
2019-03-18T06:51:57.136Z,100599.25
2019-03-18T06:54:28.589Z,100621.92
2019-03-18T06:57:00.015Z,100592.06
2019-03-18T06:59:31.338Z,100598.96
2019-03-18T07:02:02.573Z,100616.00
2019-03-18T07:04:33.875Z,100606.00
2019-03-18T07:07:05.065Z,100622.75
2019-03-18T07:09:36.470Z,100611.90
2019-03-18T07:12:07.791Z,100612.81
2019-03-18T07:14:39.122Z,100618.94
2019-03-18T07:17:10.445Z,100608.12
2019-03-18T07:19:41.881Z,100613.83
2019-03-18T07:22:13.158Z,100612.52
2019-03-18T07:24:44.427Z,100628.16
2019-03-18T07:27:15.733Z,100603.89
2019-03-18T07:29:47.117Z,100627.77
2019-03-18T07:32:18.448Z,100630.86
2019-03-18T07:34:50.792Z,100623.86
2019-03-18T07:37:22.035Z,100645.59
2019-03-18T07:39:53.342Z,100630.86
2019-03-18T07:42:24.618Z,100619.52
2019-03-18T07:44:55.885Z,100626.66
2019-03-18T07:47:27.081Z,100632.98
2019-03-18T07:50:00.019Z,100621.27
2019-03-18T07:52:31.253Z,100662.80
2019-03-18T07:55:02.559Z,100640.91
2019-03-18T07:57:33.907Z,100644.56
2019-03-18T08:00:05.616Z,100656.92
2019-03-18T08:02:37.880Z,100659.13
2019-03-18T08:05:09.618Z,100675.88
2019-03-18T08:07:40.963Z,100663.97
2019-03-18T08:10:12.471Z,100667.78
2019-03-18T08:12:43.902Z,100666.00
2019-03-18T08:15:15.329Z,100676.05
2019-03-18T08:17:46.667Z,100657.60
2019-03-18T08:20:18.070Z,100683.19
2019-03-18T08:22:49.491Z,100671.79
2019-03-18T08:25:20.872Z,100683.91
2019-03-18T08:27:52.246Z,100711.24
2019-03-18T08:30:23.555Z,100696.57
2019-03-18T08:32:55.049Z,100701.00
2019-03-18T08:35:26.378Z,100710.63
2019-03-18T08:37:57.705Z,100708.93
2019-03-18T08:40:29.272Z,100695.69
2019-03-18T08:43:02.529Z,100714.97
2019-03-18T08:45:34.674Z,100716.47
2019-03-18T08:48:06.239Z,100715.69
2019-03-18T08:50:37.690Z,100699.83
2019-03-18T08:53:09.043Z,100696.63
2019-03-18T08:55:40.335Z,100708.96
2019-03-18T08:58:13.027Z,100700.06
2019-03-18T09:00:44.400Z,100713.09
2019-03-18T09:03:15.745Z,100705.98
2019-03-18T09:05:47.076Z,100714.23
2019-03-18T09:08:18.539Z,100696.55
2019-03-18T09:10:49.936Z,100744.25
2019-03-18T09:13:22.234Z,100715.72
2019-03-18T09:15:53.504Z,100700.38
2019-03-18T09:18:25.008Z,100710.91
2019-03-18T09:20:56.249Z,100713.42
2019-03-18T09:23:27.809Z,100718.23
2019-03-18T09:25:59.054Z,100707.90
2019-03-18T09:28:30.459Z,100715.33
2019-03-18T09:31:01.742Z,100713.61
2019-03-18T09:33:33.153Z,100719.23
2019-03-18T09:36:05.068Z,100735.02
2019-03-18T09:38:36.456Z,100719.71
2019-03-18T09:41:11.819Z,100727.12
2019-03-18T09:43:43.192Z,100711.64
2019-03-18T09:46:14.425Z,100723.09
2019-03-18T09:48:45.673Z,100722.67
2019-03-18T09:51:16.966Z,100713.70
2019-03-18T09:53:48.216Z,100714.48
2019-03-18T09:56:19.635Z,100707.34
2019-03-18T09:58:50.971Z,100739.91
2019-03-18T10:01:27.500Z,100720.07
2019-03-18T10:04:02.064Z,100745.09
2019-03-18T10:06:34.379Z,100725.30
2019-03-18T10:09:08.229Z,100753.42
2019-03-18T10:11:39.569Z,100749.32
2019-03-18T10:14:11.055Z,100745.48
2019-03-18T10:16:42.642Z,100752.33
2019-03-18T10:19:14.112Z,100736.11
2019-03-18T10:21:45.362Z,100725.41
2019-03-18T10:24:16.666Z,100762.43
2019-03-18T10:26:47.935Z,100771.77
2019-03-18T10:29:19.417Z,100762.52
2019-03-18T10:31:50.689Z,100775.83
2019-03-18T10:34:22.067Z,100743.02
2019-03-18T10:36:53.457Z,100737.39
2019-03-18T10:39:24.698Z,100754.80
2019-03-18T10:41:56.332Z,100780.58
2019-03-18T10:44:27.666Z,100758.72
2019-03-18T10:46:58.978Z,100760.25
2019-03-18T10:49:30.225Z,100779.87
2019-03-18T10:52:01.504Z,100788.43
2019-03-18T10:54:33.087Z,100784.42
2019-03-18T10:57:07.298Z,100776.39
2019-03-18T10:59:38.564Z,100810.67
2019-03-18T11:02:09.893Z,100815.30
2019-03-18T11:04:41.208Z,100810.77
2019-03-18T11:07:12.815Z,100805.05
2019-03-18T11:09:44.091Z,100801.09
2019-03-18T11:12:15.342Z,100792.87
2019-03-18T11:14:46.579Z,100810.94
2019-03-18T11:17:17.877Z,100798.15
2019-03-18T11:19:58.455Z,100799.81
2019-03-18T11:22:23.004Z,100801.81
2019-03-18T11:24:54.424Z,100813.37
2019-03-18T11:27:26.103Z,100823.58
2019-03-18T11:29:57.456Z,100810.90
2019-03-18T11:32:31.972Z,100809.59
2019-03-18T11:35:03.457Z,100804.66
2019-03-18T11:37:34.702Z,100800.02
2019-03-18T11:40:06.567Z,100809.84
2019-03-18T11:42:38.148Z,100804.21
2019-03-18T11:45:10.381Z,100814.16
2019-03-18T11:47:42.286Z,100818.86
2019-03-18T11:50:16.887Z,100851.89
2019-03-18T11:52:48.432Z,100802.09
2019-03-18T11:55:20.802Z,100808.49
2019-03-18T11:57:52.321Z,100794.17
2019-03-18T12:00:23.836Z,100797.48
2019-03-18T12:02:55.200Z,100801.41
2019-03-18T12:05:26.727Z,100804.63
2019-03-18T12:07:58.278Z,100813.89
2019-03-18T12:10:29.468Z,100801.62
2019-03-18T12:13:00.788Z,100799.48
2019-03-18T12:15:32.196Z,100793.93
2019-03-18T12:18:03.440Z,100806.31
2019-03-18T12:20:35.834Z,100774.42
2019-03-18T12:23:07.209Z,100788.45
2019-03-18T12:25:38.880Z,100776.48
2019-03-18T12:28:11.345Z,100785.13
2019-03-18T12:30:43.024Z,100814.58
2019-03-18T12:33:15.510Z,100809.46
2019-03-18T12:35:46.924Z,100841.84
2019-03-18T12:38:18.328Z,100818.48
2019-03-18T12:40:49.730Z,100833.05
2019-03-18T12:43:21.263Z,100846.34
2019-03-18T12:45:52.818Z,100872.25
2019-03-18T12:48:24.258Z,100884.45
2019-03-18T12:50:56.875Z,100869.66
2019-03-18T12:53:28.308Z,100868.30
2019-03-18T12:55:59.566Z,100875.16
2019-03-18T12:58:30.833Z,100862.67
2019-03-18T13:01:12.056Z,100855.13
2019-03-18T13:03:35.281Z,100845.28
2019-03-18T13:06:07.720Z,100855.41
2019-03-18T13:08:39.003Z,100840.25
2019-03-18T13:11:10.409Z,100838.97
2019-03-18T13:13:41.852Z,100857.41
2019-03-18T13:16:13.318Z,100841.33
2019-03-18T13:18:44.782Z,100835.95
2019-03-18T13:21:16.249Z,100830.34
2019-03-18T13:23:48.551Z,100822.65
2019-03-18T13:26:19.937Z,100827.69
2019-03-18T13:28:51.231Z,100834.16
2019-03-18T13:31:24.113Z,100850.14
2019-03-18T13:33:55.394Z,100832.75
2019-03-18T13:36:26.645Z,100832.33
2019-03-18T13:38:57.963Z,100826.73
2019-03-18T13:41:29.183Z,100812.22
2019-03-18T13:44:00.580Z,100827.00
2019-03-18T13:46:31.820Z,100824.49
2019-03-18T13:49:03.602Z,100842.84
2019-03-18T13:51:34.995Z,100840.14
2019-03-18T13:54:06.352Z,100835.25
2019-03-18T13:56:37.783Z,100850.13
2019-03-18T13:59:09.740Z,100832.78
2019-03-18T14:01:41.288Z,100848.48
2019-03-18T14:04:12.583Z,100858.75
2019-03-18T14:06:43.874Z,100868.92
2019-03-18T14:09:18.147Z,100859.30
2019-03-18T14:11:49.469Z,100858.78
2019-03-18T14:14:20.945Z,100854.39
2019-03-18T14:16:52.638Z,100862.05
2019-03-18T14:19:25.042Z,100899.66
2019-03-18T14:21:56.361Z,100861.05
2019-03-18T14:24:27.809Z,100866.16
2019-03-18T14:26:59.232Z,100885.53
2019-03-18T14:29:30.495Z,100886.71
2019-03-18T14:32:01.735Z,100881.97
2019-03-18T14:34:33.133Z,100880.47
2019-03-18T14:37:04.502Z,100891.32
2019-03-18T14:39:35.751Z,100913.95
2019-03-18T14:42:07.079Z,100928.67
2019-03-18T14:44:38.544Z,100924.34
2019-03-18T14:47:10.023Z,100919.73
2019-03-18T14:49:41.536Z,100930.11
2019-03-18T14:52:12.879Z,100929.04
2019-03-18T14:54:44.417Z,100934.97
2019-03-18T14:57:16.905Z,100940.91
2019-03-18T14:59:48.680Z,100966.00
2019-03-18T15:02:19.937Z,100960.28
2019-03-18T15:04:51.333Z,100966.02
2019-03-18T15:07:23.383Z,100977.42
2019-03-18T15:09:54.827Z,100975.62
2019-03-18T15:12:26.313Z,100975.64
2019-03-18T15:15:01.966Z,100983.19
2019-03-18T15:17:33.310Z,100993.36
2019-03-18T15:20:05.111Z,101002.05
2019-03-18T15:22:36.416Z,101023.08
2019-03-18T15:25:11.209Z,100976.98
2019-03-18T15:27:42.500Z,100983.91
2019-03-18T15:30:16.557Z,100982.42
2019-03-18T15:32:47.868Z,100985.10
2019-03-18T15:35:19.292Z,100995.58
2019-03-18T15:37:51.395Z,100996.88
2019-03-18T15:40:22.733Z,100991.55
2019-03-18T15:42:55.404Z,100987.61
2019-03-18T15:45:26.826Z,100992.39
2019-03-18T15:47:58.326Z,100983.07
2019-03-18T15:50:30.899Z,100985.05
2019-03-18T15:53:02.356Z,100995.42
2019-03-18T15:55:33.721Z,101004.95
2019-03-18T15:58:05.164Z,101002.17
2019-03-18T16:00:36.754Z,101008.84
2019-03-18T16:03:08.280Z,101010.05
2019-03-18T16:05:39.781Z,101017.14
2019-03-18T16:08:11.512Z,101046.93
2019-03-18T16:10:44.379Z,101022.94
2019-03-18T16:13:15.974Z,101024.83
2019-03-18T16:15:47.501Z,101039.17
2019-03-18T16:18:18.818Z,101035.80
2019-03-18T16:20:50.160Z,101053.66
2019-03-18T16:23:21.571Z,101043.05
2019-03-18T16:25:53.185Z,101052.31
2019-03-18T16:28:24.604Z,101058.72
2019-03-18T16:30:55.953Z,101096.64
2019-03-18T16:33:28.625Z,101080.84
2019-03-18T16:36:00.256Z,101105.91
2019-03-18T16:38:31.677Z,101136.23
2019-03-18T16:41:03.087Z,101120.50
2019-03-18T16:43:35.567Z,101152.48
2019-03-18T16:46:07.107Z,101147.52
2019-03-18T16:48:38.603Z,101153.34
2019-03-18T16:51:11.305Z,101151.40
2019-03-18T16:53:46.469Z,101149.27
2019-03-18T16:56:22.935Z,101141.66
2019-03-18T16:58:56.427Z,101146.99
2019-03-18T17:01:28.728Z,101139.62
2019-03-18T17:04:00.613Z,101151.16
2019-03-18T17:06:32.943Z,101155.92
2019-03-18T17:09:05.834Z,101144.34
2019-03-18T17:11:37.905Z,101161.10
2019-03-18T17:14:09.188Z,101158.52
2019-03-18T17:16:40.489Z,101159.61
2019-03-18T17:19:11.935Z,101159.29
2019-03-18T17:21:43.254Z,101163.76
2019-03-18T17:24:14.445Z,101181.67
2019-03-18T17:26:45.736Z,101179.93
2019-03-18T17:29:17.035Z,101188.20
2019-03-18T17:31:48.316Z,101190.44
2019-03-18T17:34:19.546Z,101194.14
2019-03-18T17:36:51.018Z,101193.88
2019-03-18T17:39:22.629Z,101200.18
2019-03-18T17:41:54.018Z,101210.41
2019-03-18T17:44:25.483Z,101216.48
2019-03-18T17:46:57.159Z,101221.33
2019-03-18T17:49:29.204Z,101233.61
2019-03-18T17:52:01.781Z,101232.23
2019-03-18T17:54:33.860Z,101228.59
2019-03-18T17:57:07.383Z,101224.19
2019-03-18T17:59:39.652Z,101228.87
2019-03-18T18:02:10.989Z,101234.77
2019-03-18T18:04:42.259Z,101240.53
2019-03-18T18:07:15.412Z,101244.71
2019-03-18T18:09:48.502Z,101249.80
2019-03-18T18:12:19.804Z,101253.98
2019-03-18T18:14:51.290Z,101256.59
2019-03-18T18:17:22.756Z,101266.75
2019-03-18T18:19:54.127Z,101276.26
2019-03-18T18:22:25.834Z,101280.17
2019-03-18T18:24:57.095Z,101289.17
2019-03-18T18:27:30.348Z,101294.23
2019-03-18T18:30:03.470Z,101293.32
2019-03-18T18:32:35.514Z,101298.00
2019-03-18T18:35:08.157Z,101307.92
2019-03-18T18:37:39.510Z,101311.33
2019-03-18T18:40:11.830Z,101306.12
2019-03-18T18:42:43.388Z,101313.79
2019-03-18T18:45:14.725Z,101303.52
2019-03-18T18:47:46.116Z,101313.70
2019-03-18T18:50:17.540Z,101317.88
2019-03-18T18:52:48.946Z,101324.92
2019-03-18T18:55:21.432Z,101335.11
2019-03-18T18:57:52.843Z,101335.37
2019-03-18T19:00:24.412Z,101328.75
2019-03-18T19:02:55.879Z,101336.30
2019-03-18T19:05:27.099Z,101330.67
2019-03-18T19:07:58.449Z,101344.73
2019-03-18T19:10:29.731Z,101346.04
2019-03-18T19:13:01.025Z,101351.79
2019-03-18T19:15:32.471Z,101357.12
2019-03-18T19:18:03.860Z,101348.92
2019-03-18T19:20:35.613Z,101354.63
2019-03-18T19:23:06.965Z,101362.56
2019-03-18T19:25:38.173Z,101363.60
2019-03-18T19:28:09.698Z,101368.05
2019-03-18T19:30:41.107Z,101370.23
2019-03-18T19:33:12.515Z,101374.15
2019-03-18T19:35:43.871Z,101379.52
2019-03-18T19:38:15.323Z,101385.61
2019-03-18T19:40:46.689Z,101381.58
2019-03-18T19:43:18.002Z,101383.27
2019-03-18T19:45:49.469Z,101386.30
2019-03-18T19:48:20.844Z,101388.64
2019-03-18T19:50:52.209Z,101394.23
2019-03-18T19:53:24.928Z,101397.48
2019-03-18T19:55:56.600Z,101405.06
2019-03-18T19:58:31.120Z,101400.77
2019-03-18T20:01:02.567Z,101404.05
2019-03-18T20:03:33.926Z,101414.35
2019-03-18T20:06:05.487Z,101420.59
2019-03-18T20:08:36.769Z,101418.25
2019-03-18T20:11:08.033Z,101423.45
2019-03-18T20:13:39.541Z,101428.67
2019-03-18T20:16:10.785Z,101425.17
2019-03-18T20:18:42.128Z,101424.76
2019-03-18T20:21:13.347Z,101425.94
2019-03-18T20:23:44.606Z,101433.09
2019-03-18T20:26:15.872Z,101428.30
2019-03-18T20:28:47.177Z,101442.75
2019-03-18T20:31:25.677Z,101443.67
2019-03-18T20:33:51.665Z,101453.56
2019-03-18T20:36:22.968Z,101454.62
2019-03-18T20:38:54.559Z,101453.58
2019-03-18T20:41:26.222Z,101456.69
2019-03-18T20:43:57.734Z,101466.98
2019-03-18T20:46:29.301Z,101461.02
2019-03-18T20:49:01.063Z,101466.60
2019-03-18T20:51:32.496Z,101461.77
2019-03-18T20:54:11.676Z,101465.56
2019-03-18T20:56:36.945Z,101462.83
2019-03-18T20:59:08.318Z,101468.30
2019-03-18T21:01:39.656Z,101478.59
2019-03-18T21:04:12.232Z,101481.34
2019-03-18T21:06:43.611Z,101485.38
2019-03-18T21:09:15.031Z,101490.72
2019-03-18T21:11:46.854Z,101493.04
2019-03-18T21:14:18.619Z,101505.81
2019-03-18T21:16:54.857Z,101499.56
2019-03-18T21:19:33.266Z,101496.03
2019-03-18T21:22:04.606Z,101503.22
2019-03-18T21:24:35.931Z,101509.73
2019-03-18T21:27:07.189Z,101515.44
2019-03-18T21:29:43.921Z,101519.34
2019-03-18T21:32:16.075Z,101522.48
2019-03-18T21:34:47.545Z,101525.22
2019-03-18T21:37:18.870Z,101522.20
2019-03-18T21:39:50.824Z,101536.14
2019-03-18T21:42:22.507Z,101527.56
2019-03-18T21:44:53.867Z,101534.97
2019-03-18T21:47:25.177Z,101532.11
2019-03-18T21:49:56.438Z,101538.37
2019-03-18T21:52:27.858Z,101534.46
2019-03-18T21:55:00.534Z,101542.66
2019-03-18T21:57:31.909Z,101547.48
2019-03-18T22:00:03.712Z,101551.39
2019-03-18T22:02:35.041Z,101555.80
2019-03-18T22:05:06.817Z,101553.70
2019-03-18T22:07:38.020Z,101565.16
2019-03-18T22:10:11.259Z,101563.33
2019-03-18T22:12:42.749Z,101572.05
2019-03-18T22:15:14.406Z,101565.25
2019-03-18T22:17:46.986Z,101573.34
2019-03-18T22:20:18.645Z,101573.98
2019-03-18T22:22:53.053Z,101575.03
2019-03-18T22:25:27.004Z,101586.20
2019-03-18T22:27:58.278Z,101591.27
2019-03-18T22:30:29.894Z,101591.52
2019-03-18T22:33:01.578Z,101589.71
2019-03-18T22:35:32.893Z,101593.62
2019-03-18T22:38:05.486Z,101595.30
2019-03-18T22:40:36.938Z,101589.83
2019-03-18T22:43:08.645Z,101594.11
2019-03-18T22:45:39.931Z,101599.83
2019-03-18T22:48:11.288Z,101602.18
2019-03-18T22:50:43.173Z,101609.36
2019-03-18T22:53:14.959Z,101605.21
2019-03-18T22:55:46.477Z,101601.44
2019-03-18T22:58:19.423Z,101600.77
2019-03-18T23:00:52.866Z,101607.44
2019-03-18T23:03:25.739Z,101600.77
2019-03-18T23:05:56.982Z,101601.31
2019-03-18T23:08:28.290Z,101595.05
2019-03-18T23:10:59.717Z,101600.64
2019-03-18T23:13:31.010Z,101608.45
2019-03-18T23:16:02.331Z,101612.90
2019-03-18T23:18:33.670Z,101625.66
2019-03-18T23:21:04.941Z,101623.06
2019-03-18T23:23:36.346Z,101624.74
2019-03-18T23:26:07.848Z,101626.80
2019-03-18T23:28:39.579Z,101625.78
2019-03-18T23:31:10.857Z,101631.23
2019-03-18T23:33:42.152Z,101640.59
2019-03-18T23:36:13.389Z,101639.92
2019-03-18T23:38:44.923Z,101644.48
2019-03-18T23:41:16.667Z,101641.34
2019-03-18T23:43:47.970Z,101653.19
2019-03-18T23:46:20.228Z,101657.88
2019-03-18T23:48:51.465Z,101662.03
2019-03-18T23:51:22.752Z,101666.56
2019-03-18T23:53:54.000Z,101663.56
2019-03-18T23:56:25.309Z,101662.38
2019-03-18T23:58:56.549Z,101667.80
